createdAt,value
2023-04-03T00:01:46.015Z,2.60
2023-04-03T00:04:12.461Z,2.67
2023-04-03T00:06:38.934Z,2.67
2023-04-03T00:09:05.330Z,2.40
2023-04-03T00:11:31.682Z,2.43
2023-04-03T00:13:58.062Z,2.80
2023-04-03T00:16:24.502Z,2.60
2023-04-03T00:18:50.917Z,2.73
2023-04-03T00:21:17.633Z,2.50
2023-04-03T00:23:44.022Z,3.10
2023-04-03T00:26:10.530Z,2.40
2023-04-03T00:28:36.933Z,2.60
2023-04-03T00:31:03.920Z,2.70
2023-04-03T00:33:30.332Z,2.20
2023-04-03T00:35:56.735Z,2.47
2023-04-03T00:38:23.253Z,2.30
2023-04-03T00:40:50.801Z,2.90
2023-04-03T00:43:27.285Z,2.60
2023-04-03T00:45:56.099Z,2.70
2023-04-03T00:48:33.512Z,2.50
2023-04-03T00:51:01.345Z,2.30
2023-04-03T00:53:36.467Z,3.07
2023-04-03T00:56:06.737Z,2.30
2023-04-03T00:58:45.532Z,2.33
2023-04-03T01:01:16.956Z,2.23
2023-04-03T01:03:43.421Z,2.50
2023-04-03T01:06:09.934Z,2.10
2023-04-03T01:08:36.562Z,2.00
2023-04-03T01:11:03.027Z,2.00
2023-04-03T01:13:32.339Z,2.13
2023-04-03T01:16:04.453Z,2.30
2023-04-03T01:18:31.938Z,2.20
2023-04-03T01:21:36.826Z,2.30
2023-04-03T01:24:27.742Z,2.10
2023-04-03T01:26:54.222Z,2.50
2023-04-03T01:29:20.919Z,2.27
2023-04-03T01:31:53.350Z,2.40
2023-04-03T01:34:20.474Z,2.27
2023-04-03T01:36:46.953Z,2.30
2023-04-03T01:39:13.481Z,2.10
2023-04-03T01:41:39.975Z,2.27
2023-04-03T01:44:06.477Z,2.67
2023-04-03T01:46:32.999Z,3.43
2023-04-03T01:48:59.461Z,3.40
2023-04-03T01:51:26.066Z,3.77
2023-04-03T01:53:52.589Z,3.63
2023-04-03T01:56:18.928Z,3.97
2023-04-03T01:58:45.277Z,4.20
2023-04-03T02:01:11.663Z,5.60
2023-04-03T02:03:38.066Z,4.67
2023-04-03T02:06:04.617Z,5.33
2023-04-03T02:08:31.093Z,4.67
2023-04-03T02:10:57.774Z,8.57
2023-04-03T02:13:24.123Z,9.20
2023-04-03T02:15:50.517Z,5.47
2023-04-03T02:18:17.533Z,3.23
2023-04-03T02:20:43.931Z,3.50
2023-04-03T02:23:10.608Z,2.80
2023-04-03T02:25:38.553Z,3.00
2023-04-03T02:28:05.904Z,3.00
2023-04-03T02:30:32.250Z,2.57
2023-04-03T02:32:58.653Z,2.70
2023-04-03T02:35:25.368Z,2.87
2023-04-03T02:37:51.947Z,3.90
2023-04-03T02:40:18.474Z,4.80
2023-04-03T02:42:44.851Z,5.43
2023-04-03T02:45:11.580Z,4.97
2023-04-03T02:47:38.024Z,5.17
2023-04-03T02:50:04.715Z,5.53
2023-04-03T02:52:31.107Z,5.93
2023-04-03T02:54:57.426Z,6.03
2023-04-03T02:57:23.808Z,6.70
2023-04-03T02:59:50.285Z,5.57
2023-04-03T03:02:16.622Z,5.23
2023-04-03T03:04:43.711Z,5.23
2023-04-03T03:07:10.416Z,4.70
2023-04-03T03:09:37.099Z,3.77
2023-04-03T03:12:03.656Z,2.90
2023-04-03T03:14:30.132Z,2.37
2023-04-03T03:16:56.588Z,2.27
2023-04-03T03:19:22.983Z,2.37
2023-04-03T03:21:49.445Z,2.77
2023-04-03T03:24:16.821Z,2.20
2023-04-03T03:26:43.566Z,2.80
2023-04-03T03:29:10.028Z,2.30
2023-04-03T03:31:36.763Z,2.23
2023-04-03T03:34:03.167Z,2.23
2023-04-03T03:36:29.616Z,2.10
2023-04-03T03:38:56.068Z,2.00
2023-04-03T03:41:22.528Z,2.40
2023-04-03T03:43:48.894Z,1.97
2023-04-03T03:46:15.297Z,2.30
2023-04-03T03:48:41.798Z,2.23
2023-04-03T03:51:08.170Z,2.10
2023-04-03T03:53:34.908Z,2.07
2023-04-03T03:56:01.416Z,2.20
2023-04-03T03:58:27.836Z,2.23
2023-04-03T04:00:54.169Z,1.80
2023-04-03T04:03:20.681Z,1.90
2023-04-03T04:05:47.089Z,2.23
2023-04-03T04:08:13.473Z,2.03
2023-04-03T04:10:40.229Z,1.90
2023-04-03T04:13:06.678Z,2.00
2023-04-03T04:15:32.998Z,1.83
2023-04-03T04:17:59.401Z,2.07
2023-04-03T04:20:25.953Z,1.77
2023-04-03T04:22:52.460Z,1.60
2023-04-03T04:25:18.863Z,2.00
2023-04-03T04:27:45.279Z,1.80
2023-04-03T04:30:12.402Z,1.97
2023-04-03T04:32:38.796Z,1.90
2023-04-03T04:35:05.881Z,1.97
2023-04-03T04:37:32.417Z,1.80
2023-04-03T04:39:58.928Z,1.53
2023-04-03T04:42:25.569Z,2.00
2023-04-03T04:44:51.940Z,2.17
2023-04-03T04:47:18.498Z,2.43
2023-04-03T04:49:45.014Z,1.90
2023-04-03T04:52:11.479Z,1.67
2023-04-03T04:54:37.829Z,2.10
2023-04-03T04:57:04.324Z,2.20
2023-04-03T04:59:30.696Z,2.27
2023-04-03T05:01:57.106Z,2.20
2023-04-03T05:04:23.794Z,2.27
2023-04-03T05:06:50.222Z,2.38
2023-04-03T05:09:16.950Z,2.60
2023-04-03T05:11:43.984Z,1.70
2023-04-03T05:14:10.451Z,1.90
2023-04-03T05:16:37.217Z,2.03
2023-04-03T05:19:04.092Z,1.93
2023-04-03T05:21:33.416Z,2.07
2023-04-03T05:24:03.452Z,2.10
2023-04-03T05:26:31.621Z,2.10
2023-04-03T05:28:58.106Z,1.73
2023-04-03T05:31:24.827Z,1.97
2023-04-03T05:33:51.360Z,2.07
2023-04-03T05:36:17.698Z,2.43
2023-04-03T05:38:44.457Z,1.70
2023-04-03T05:41:12.229Z,2.13
2023-04-03T05:43:39.840Z,2.07
2023-04-03T05:46:13.773Z,2.63
2023-04-03T05:48:40.818Z,1.97
2023-04-03T05:51:10.709Z,1.97
2023-04-03T05:53:40.351Z,2.00
2023-04-03T05:56:06.815Z,2.17
2023-04-03T05:58:33.161Z,2.50
2023-04-03T06:00:59.524Z,2.30
2023-04-03T06:03:26.507Z,2.40
2023-04-03T06:05:53.204Z,2.27
2023-04-03T06:08:19.657Z,1.97
2023-04-03T06:10:46.588Z,2.13
2023-04-03T06:13:13.467Z,1.90
2023-04-03T06:15:41.312Z,1.73
2023-04-03T06:18:07.924Z,1.80
2023-04-03T06:20:34.692Z,1.93
2023-04-03T06:23:01.427Z,2.20
2023-04-03T06:25:27.777Z,1.80
2023-04-03T06:27:56.357Z,1.93
2023-04-03T06:30:22.842Z,1.80
2023-04-03T06:32:49.347Z,2.03
2023-04-03T06:35:16.102Z,1.90
2023-04-03T06:37:42.762Z,1.90
2023-04-03T06:40:20.881Z,1.70
2023-04-03T06:42:47.594Z,2.30
2023-04-03T06:45:13.996Z,2.13
2023-04-03T06:47:40.417Z,2.07
2023-04-03T06:50:07.914Z,1.80
2023-04-03T06:52:34.309Z,1.57
2023-04-03T06:55:01.318Z,1.73
2023-04-03T06:57:27.808Z,1.87
2023-04-03T06:59:54.310Z,1.40
2023-04-03T07:02:21.748Z,1.97
2023-04-03T07:04:48.592Z,1.97
2023-04-03T07:07:15.651Z,2.40
2023-04-03T07:09:45.202Z,2.13
2023-04-03T07:12:11.806Z,1.83
2023-04-03T07:14:38.175Z,2.00
2023-04-03T07:17:04.549Z,2.07
2023-04-03T07:19:31.488Z,1.73
2023-04-03T07:21:58.003Z,1.90
2023-04-03T07:24:24.397Z,1.40
2023-04-03T07:26:51.824Z,1.70
2023-04-03T07:29:18.282Z,1.57
2023-04-03T07:31:45.790Z,1.90
2023-04-03T07:34:12.490Z,1.20
2023-04-03T07:36:38.820Z,1.70
2023-04-03T07:39:05.236Z,1.67
2023-04-03T07:41:32.042Z,1.80
2023-04-03T07:43:58.526Z,1.60
2023-04-03T07:46:25.039Z,1.50
2023-04-03T07:48:51.531Z,1.60
2023-04-03T07:51:18.012Z,1.70
2023-04-03T07:53:44.477Z,1.70
2023-04-03T07:56:11.127Z,1.73
2023-04-03T07:58:37.970Z,1.87
2023-04-03T08:01:04.910Z,1.57
2023-04-03T08:03:31.421Z,1.70
2023-04-03T08:06:04.488Z,1.70
2023-04-03T08:08:31.697Z,1.37
2023-04-03T08:11:00.192Z,1.50
2023-04-03T08:13:27.140Z,1.87
2023-04-03T08:15:53.503Z,1.70
2023-04-03T08:18:22.651Z,1.83
2023-04-03T08:20:49.075Z,1.53
2023-04-03T08:23:17.273Z,1.70
2023-04-03T08:25:45.540Z,1.60
2023-04-03T08:28:13.175Z,2.27
2023-04-03T08:30:42.046Z,1.90
2023-04-03T08:33:08.943Z,1.60
2023-04-03T08:35:40.801Z,1.90
2023-04-03T08:38:08.251Z,1.60
2023-04-03T08:40:34.583Z,1.50
2023-04-03T08:43:05.357Z,2.00
2023-04-03T08:45:51.326Z,1.63
2023-04-03T08:48:36.298Z,1.90
2023-04-03T08:51:12.913Z,1.60
2023-04-03T08:53:42.476Z,1.30
2023-04-03T08:56:16.479Z,1.60
2023-04-03T08:58:49.490Z,1.17
2023-04-03T09:01:35.381Z,2.20
2023-04-03T09:04:03.341Z,1.87
2023-04-03T09:06:36.378Z,1.47
2023-04-03T09:09:31.181Z,1.50
2023-04-03T09:12:13.016Z,1.20
2023-04-03T09:14:44.294Z,1.60
2023-04-03T09:17:18.799Z,1.50
2023-04-03T09:20:12.158Z,1.57
2023-04-03T09:22:49.718Z,1.40
2023-04-03T09:25:34.073Z,1.53
2023-04-03T09:28:02.801Z,1.80
2023-04-03T09:30:29.558Z,1.70
2023-04-03T09:32:57.750Z,2.13
2023-04-03T09:35:45.006Z,1.40
2023-04-03T09:38:14.419Z,1.57
2023-04-03T09:40:46.605Z,1.57
2023-04-03T09:43:39.975Z,1.67
2023-04-03T09:46:24.683Z,2.83
2023-04-03T09:49:08.857Z,1.50
2023-04-03T09:51:36.680Z,1.40
2023-04-03T09:54:39.489Z,1.93
2023-04-03T09:57:13.073Z,1.30
2023-04-03T09:59:45.410Z,1.27
2023-04-03T10:02:35.563Z,1.33
2023-04-03T10:07:35.971Z,1.27
2023-04-03T10:10:35.130Z,1.53
2023-04-03T10:13:07.354Z,1.47
2023-04-03T10:15:45.183Z,1.27
2023-04-03T10:18:43.840Z,1.50
2023-04-03T10:21:27.914Z,1.27
2023-04-03T10:24:09.703Z,1.23
2023-04-03T10:26:50.416Z,1.27
2023-04-03T10:29:39.365Z,1.23
2023-04-03T10:32:46.596Z,1.10
2023-04-03T10:35:19.085Z,1.50
2023-04-03T10:38:14.690Z,1.20
2023-04-03T10:41:17.986Z,1.20
2023-04-03T10:44:08.094Z,1.10
2023-04-03T10:46:50.717Z,1.20
2023-04-03T10:49:59.418Z,1.00
2023-04-03T10:52:44.231Z,1.20
2023-04-03T10:55:22.972Z,1.30
2023-04-03T10:57:51.298Z,1.20
2023-04-03T11:00:22.357Z,1.07
2023-04-03T11:03:07.169Z,1.03
2023-04-03T11:05:50.277Z,1.03
2023-04-03T11:08:52.341Z,1.10
2023-04-03T11:11:23.570Z,1.00
2023-04-03T11:14:03.019Z,1.53
2023-04-03T11:16:43.276Z,1.03
2023-04-03T11:19:29.057Z,1.53
2023-04-03T11:22:01.784Z,1.10
2023-04-03T11:24:32.027Z,7.50
2023-04-03T11:27:04.596Z,2.40
2023-04-03T11:29:37.551Z,1.57
2023-04-03T11:32:30.519Z,2.13
2023-04-03T11:35:01.899Z,2.50
2023-04-03T11:37:36.706Z,2.00
2023-04-03T11:40:24.277Z,10.13
2023-04-03T11:42:55.937Z,2.50
2023-04-03T11:45:22.293Z,6.23
2023-04-03T11:47:51.844Z,3.67
2023-04-03T11:50:43.242Z,1.30
2023-04-03T11:53:12.977Z,2.20
2023-04-03T11:55:48.741Z,1.00
2023-04-03T11:58:32.565Z,1.00
2023-04-03T12:01:02.234Z,1.50
2023-04-03T12:03:32.987Z,1.30
2023-04-03T12:06:05.395Z,1.30
2023-04-03T12:08:35.226Z,1.20
2023-04-03T12:11:11.286Z,1.10
2023-04-03T12:13:49.923Z,1.10
2023-04-03T12:16:23.505Z,1.00
2023-04-03T12:18:49.988Z,1.00
2023-04-03T12:21:22.178Z,1.00
2023-04-03T12:24:03.907Z,0.90
2023-04-03T12:26:48.236Z,0.90
2023-04-03T12:29:21.564Z,0.90
2023-04-03T12:32:28.654Z,1.20
2023-04-03T12:35:16.346Z,1.27
2023-04-03T12:38:01.145Z,1.13
2023-04-03T12:40:42.815Z,1.20
2023-04-03T12:43:47.997Z,1.30
2023-04-03T12:46:21.902Z,1.17
2023-04-03T12:48:54.477Z,1.40
2023-04-03T12:51:29.176Z,1.40
2023-04-03T12:54:02.444Z,1.50
2023-04-03T12:56:33.413Z,1.07
2023-04-03T12:59:18.192Z,1.20
2023-04-03T13:01:54.066Z,1.40
2023-04-03T13:04:20.447Z,1.30
2023-04-03T13:06:46.945Z,1.27
2023-04-03T13:09:24.730Z,1.53
2023-04-03T13:11:57.407Z,1.00
2023-04-03T13:14:26.355Z,1.40
2023-04-03T13:17:03.708Z,1.43
2023-04-03T13:19:31.611Z,1.43
2023-04-03T13:22:03.783Z,1.50
2023-04-03T13:24:33.636Z,1.50
2023-04-03T13:27:00.364Z,1.47
2023-04-03T13:29:32.144Z,1.83
2023-04-03T13:32:02.233Z,1.47
2023-04-03T13:34:36.312Z,1.60
2023-04-03T13:37:05.325Z,1.27
2023-04-03T13:39:37.944Z,1.40
2023-04-03T13:42:25.255Z,1.77
2023-04-03T13:45:24.028Z,1.10
2023-04-03T13:47:53.809Z,1.33
2023-04-03T13:50:30.099Z,1.60
2023-04-03T13:53:03.438Z,1.47
2023-04-03T13:55:34.470Z,1.47
2023-04-03T13:58:22.902Z,1.63
2023-04-03T14:01:01.883Z,1.67
2023-04-03T14:03:34.679Z,1.53
2023-04-03T14:06:02.316Z,1.60
2023-04-03T14:08:41.832Z,1.50
2023-04-03T14:11:31.195Z,1.90
2023-04-03T14:14:06.068Z,1.90
2023-04-03T14:16:38.835Z,1.70
2023-04-03T14:19:05.163Z,1.97
2023-04-03T14:21:31.623Z,1.60
2023-04-03T14:23:58.110Z,1.60
2023-04-03T14:26:26.162Z,1.77
2023-04-03T14:28:55.034Z,1.70
2023-04-03T14:31:22.812Z,1.63
2023-04-03T14:33:49.394Z,1.60
2023-04-03T14:36:21.715Z,1.57
2023-04-03T14:38:50.019Z,1.50
2023-04-03T14:41:18.948Z,1.40
2023-04-03T14:43:46.687Z,1.70
2023-04-03T14:46:54.323Z,1.67
2023-04-03T14:49:25.672Z,2.00
2023-04-03T14:51:53.645Z,1.60
2023-04-03T14:54:26.244Z,1.60
2023-04-03T14:56:53.271Z,1.73
2023-04-03T14:59:21.095Z,1.40
2023-04-03T15:01:47.565Z,1.53
2023-04-03T15:04:16.005Z,1.57
2023-04-03T15:06:43.292Z,1.60
2023-04-03T15:09:22.534Z,2.10
2023-04-03T15:11:50.693Z,1.90
2023-04-03T15:14:29.498Z,1.80
2023-04-03T15:17:04.601Z,1.80
2023-04-03T15:19:36.738Z,2.20
2023-04-03T15:22:03.131Z,1.70
2023-04-03T15:24:29.567Z,3.73
2023-04-03T15:26:56.073Z,2.03
2023-04-03T15:29:22.550Z,8.07
2023-04-03T15:31:50.830Z,5.33
2023-04-03T15:34:18.094Z,1.70
2023-04-03T15:36:44.563Z,1.83
2023-04-03T15:39:11.063Z,2.30
2023-04-03T15:41:37.556Z,2.03
2023-04-03T15:44:03.949Z,1.73
2023-04-03T15:46:30.875Z,2.70
2023-04-03T15:48:57.326Z,1.67
2023-04-03T15:51:23.741Z,5.77
2023-04-03T15:53:50.419Z,4.00
2023-04-03T15:56:16.838Z,5.87
2023-04-03T15:58:43.294Z,3.73
2023-04-03T16:01:12.241Z,5.27
2023-04-03T16:03:46.470Z,4.10
2023-04-03T16:06:14.792Z,2.73
2023-04-03T16:08:41.464Z,1.67
2023-04-03T16:11:07.851Z,1.77
2023-04-03T16:13:35.625Z,1.40
2023-04-03T16:16:02.984Z,1.47
2023-04-03T16:18:30.263Z,1.67
2023-04-03T16:20:56.757Z,1.50
2023-04-03T16:23:23.624Z,1.70
2023-04-03T16:25:50.864Z,1.50
2023-04-03T16:28:18.705Z,1.90
2023-04-03T16:30:47.436Z,1.40
2023-04-03T16:33:14.291Z,1.50
2023-04-03T16:35:43.025Z,1.60
2023-04-03T16:38:09.549Z,1.40
2023-04-03T16:40:35.938Z,2.20
2023-04-03T16:43:03.546Z,1.70
2023-04-03T16:45:29.948Z,1.40
2023-04-03T16:47:56.673Z,1.77
2023-04-03T16:50:23.173Z,1.33
2023-04-03T16:52:49.963Z,1.30
2023-04-03T16:55:16.479Z,1.90
2023-04-03T16:57:42.976Z,1.37
2023-04-03T17:00:10.094Z,1.80
2023-04-03T17:02:36.456Z,1.70
2023-04-03T17:05:03.001Z,1.43
2023-04-03T17:07:29.344Z,1.60
2023-04-03T17:09:55.802Z,1.77
2023-04-03T17:12:22.853Z,2.17
2023-04-03T17:14:49.339Z,1.37
2023-04-03T17:17:18.900Z,1.43
2023-04-03T17:19:45.736Z,1.50
2023-04-03T17:22:12.350Z,1.40
2023-04-03T17:24:38.702Z,1.70
2023-04-03T17:27:05.351Z,1.30
2023-04-03T17:29:31.686Z,1.50
2023-04-03T17:31:58.063Z,1.20
2023-04-03T17:34:24.444Z,1.40
2023-04-03T17:36:51.150Z,1.40
2023-04-03T17:39:17.841Z,1.50
2023-04-03T17:41:45.891Z,1.87
2023-04-03T17:44:12.772Z,1.60
2023-04-03T17:46:39.361Z,2.30
2023-04-03T17:49:05.947Z,1.93
2023-04-03T17:51:35.497Z,1.63
2023-04-03T17:54:02.329Z,1.60
2023-04-03T17:56:28.835Z,1.50
2023-04-03T17:58:57.393Z,2.30
2023-04-03T18:01:23.806Z,2.00
2023-04-03T18:03:53.879Z,1.73
2023-04-03T18:06:23.008Z,2.10
2023-04-03T18:08:52.783Z,2.13
2023-04-03T18:11:22.177Z,2.50
2023-04-03T18:13:48.793Z,1.97
2023-04-03T18:16:15.188Z,2.57
2023-04-03T18:18:41.696Z,2.40
2023-04-03T18:21:10.881Z,2.20
2023-04-03T18:23:39.041Z,1.90
2023-04-03T18:26:07.274Z,2.10
2023-04-03T18:28:33.767Z,2.23
2023-04-03T18:31:01.420Z,2.00
2023-04-03T18:33:27.720Z,1.87
2023-04-03T18:35:54.243Z,1.43
2023-04-03T18:38:20.793Z,1.97
2023-04-03T18:40:47.487Z,1.70
2023-04-03T18:43:14.609Z,2.10
2023-04-03T18:45:41.389Z,3.60
2023-04-03T18:48:07.978Z,4.10
2023-04-03T18:50:34.918Z,3.93
2023-04-03T18:53:01.260Z,4.93
2023-04-03T18:55:27.734Z,3.47
2023-04-03T18:57:54.055Z,3.07
2023-04-03T19:00:20.630Z,3.17
2023-04-03T19:02:48.599Z,2.50
2023-04-03T19:05:17.037Z,2.53
2023-04-03T19:07:44.504Z,2.80
2023-04-03T19:10:17.385Z,2.60
2023-04-03T19:12:45.258Z,1.93
2023-04-03T19:15:16.144Z,2.40
2023-04-03T19:17:42.782Z,1.80
2023-04-03T19:20:10.936Z,1.70
2023-04-03T19:22:38.172Z,1.90
2023-04-03T19:25:06.046Z,1.93
2023-04-03T19:27:34.445Z,2.33
2023-04-03T19:30:00.949Z,2.30
2023-04-03T19:32:27.499Z,1.90
2023-04-03T19:34:53.853Z,1.80
2023-04-03T19:37:20.302Z,1.63
2023-04-03T19:39:46.644Z,2.13
2023-04-03T19:42:13.407Z,1.80
2023-04-03T19:44:39.999Z,2.27
2023-04-03T19:47:06.349Z,1.83
2023-04-03T19:49:32.712Z,2.10
2023-04-03T19:51:59.128Z,2.20
2023-04-03T19:54:25.536Z,1.80
2023-04-03T19:56:52.175Z,2.00
2023-04-03T19:59:18.671Z,2.00
2023-04-03T20:01:46.369Z,1.70
2023-04-03T20:04:13.778Z,1.93
2023-04-03T20:06:40.404Z,2.00
2023-04-03T20:09:06.828Z,2.13
2023-04-03T20:11:37.690Z,1.93
2023-04-03T20:14:04.310Z,2.00
2023-04-03T20:16:30.861Z,2.00
2023-04-03T20:18:57.487Z,1.67
2023-04-03T20:21:31.943Z,1.77
2023-04-03T20:23:59.839Z,2.23
2023-04-03T20:26:28.681Z,2.07
2023-04-03T20:28:57.510Z,2.10
2023-04-03T20:31:25.816Z,1.90
2023-04-03T20:33:52.384Z,2.50
2023-04-03T20:36:20.084Z,2.43
2023-04-03T20:38:48.013Z,2.20
2023-04-03T20:41:15.665Z,2.50
2023-04-03T20:43:43.027Z,2.40
2023-04-03T20:46:10.886Z,2.17
2023-04-03T20:48:37.545Z,2.13
2023-04-03T20:51:12.398Z,2.30
2023-04-03T20:53:39.617Z,1.90
2023-04-03T20:56:08.211Z,2.20
2023-04-03T20:58:38.615Z,1.93
2023-04-03T21:01:17.371Z,2.73
2023-04-03T21:03:46.031Z,2.30
2023-04-03T21:06:50.696Z,2.10
2023-04-03T21:09:56.408Z,2.33
2023-04-03T21:13:00.708Z,2.87
2023-04-03T21:15:49.121Z,2.33
2023-04-03T21:18:42.065Z,2.60
2023-04-03T21:21:22.182Z,2.80
2023-04-03T21:23:49.679Z,2.30
2023-04-03T21:26:17.475Z,2.60
2023-04-03T21:28:43.928Z,1.80
2023-04-03T21:31:15.223Z,2.43
2023-04-03T21:33:42.467Z,1.73
2023-04-03T21:36:10.254Z,2.37
2023-04-03T21:38:36.780Z,2.57
2023-04-03T21:41:03.487Z,2.80
2023-04-03T21:43:30.053Z,2.07
2023-04-03T21:45:58.434Z,2.53
2023-04-03T21:48:28.611Z,2.40
2023-04-03T21:51:02.313Z,1.90
2023-04-03T21:53:30.296Z,2.13
2023-04-03T21:55:57.552Z,2.40
2023-04-03T21:58:34.000Z,2.07
2023-04-03T22:01:10.975Z,2.10
2023-04-03T22:03:37.997Z,1.97
2023-04-03T22:06:05.185Z,2.00
2023-04-03T22:08:31.648Z,1.87
2023-04-03T22:11:03.379Z,1.73
2023-04-03T22:13:30.812Z,2.07
2023-04-03T22:15:59.249Z,1.73
2023-04-03T22:18:26.241Z,1.90
2023-04-03T22:20:52.657Z,1.90
2023-04-03T22:23:19.353Z,1.63
2023-04-03T22:26:05.720Z,1.90
2023-04-03T22:28:34.607Z,2.00
2023-04-03T22:31:08.271Z,1.90
2023-04-03T22:33:38.628Z,2.00
2023-04-03T22:36:06.723Z,1.93
2023-04-03T22:38:33.344Z,1.60
2023-04-03T22:41:04.391Z,1.97
2023-04-03T22:43:32.990Z,1.70
2023-04-03T22:46:04.470Z,1.80
2023-04-03T22:48:31.165Z,2.10
2023-04-03T22:50:57.658Z,2.57
2023-04-03T22:53:24.009Z,2.60
2023-04-03T22:55:59.080Z,2.27
2023-04-03T22:58:26.852Z,2.10
2023-04-03T23:01:04.514Z,2.17
2023-04-03T23:03:31.438Z,2.33
2023-04-03T23:05:58.366Z,2.30
2023-04-03T23:08:24.763Z,2.07
2023-04-03T23:10:55.592Z,2.20
2023-04-03T23:13:22.492Z,2.37
2023-04-03T23:16:00.381Z,1.90
2023-04-03T23:18:29.459Z,2.17
2023-04-03T23:20:56.886Z,1.80
2023-04-03T23:23:24.237Z,2.07
2023-04-03T23:25:59.162Z,1.90
2023-04-03T23:28:26.558Z,2.03
2023-04-03T23:31:01.643Z,2.10
2023-04-03T23:33:29.040Z,1.97
2023-04-03T23:35:55.488Z,2.63
2023-04-03T23:38:21.988Z,1.90
2023-04-03T23:40:48.327Z,1.67
2023-04-03T23:43:14.691Z,2.13
2023-04-03T23:45:41.790Z,2.43
2023-04-03T23:48:08.994Z,1.97
2023-04-03T23:50:35.484Z,1.90
2023-04-03T23:53:01.948Z,2.20
2023-04-03T23:55:28.389Z,1.87
2023-04-03T23:57:54.826Z,1.90
